Time;durP1;ratioP1;P1;durP2;ratioP2;P2;SDS_P1;SDS_P2;PMS_P1;PMS_P2;Temp;Humidity;BMP_temperature;BMP_pressure;BME280_temperature;BME280_humidity;BME280_pressure;Samples;Min_cycle;Max_cycle;Signal;HPM_P1;HPM_P2
2020/12/03 00:00:48;;;;;;;52.50;24.45;;;;;;;-2.60;77.96;100885.45;4786052;59;1140509;-80
2020/12/03 00:06:04;;;;;;;74.83;32.20;;;;;;;-2.63;77.87;100892.42;4711839;60;1140488;-80
2020/12/03 00:11:10;;;;;;;59.27;26.43;;;;;;;-2.63;78.10;100889.83;4824787;58;1140356;-79
2020/12/03 00:16:16;;;;;;;69.07;31.20;;;;;;;-2.55;78.07;100897.86;4799709;59;1140426;-80
2020/12/03 00:21:35;;;;;;;68.90;29.80;;;;;;;-2.48;78.25;100905.09;4802372;58;1140344;-80
2020/12/03 00:26:41;;;;;;;56.73;27.10;;;;;;;-2.50;77.77;100923.23;4802148;58;1140866;-80
2020/12/03 00:31:48;;;;;;;60.13;26.97;;;;;;;-2.56;77.84;100911.69;4797934;58;1140868;-79
2020/12/03 00:36:54;;;;;;;68.60;34.40;;;;;;;-2.58;78.08;100903.52;4819329;58;1140564;-80
2020/12/03 00:41:59;;;;;;;74.73;31.17;;;;;;;-2.52;78.05;100900.39;4800020;59;1140605;-79
2020/12/03 00:47:05;;;;;;;61.43;28.10;;;;;;;-2.52;77.95;100911.20;4797850;59;1140425;-80
2020/12/03 00:52:10;;;;;;;74.10;30.53;;;;;;;-2.52;78.06;100909.46;4803631;58;1140511;-79
2020/12/03 00:57:16;;;;;;;74.60;36.20;;;;;;;-2.51;78.04;100910.31;4818918;59;1140467;-80
2020/12/03 01:02:22;;;;;;;71.02;34.63;;;;;;;-2.48;77.97;100886.96;4799813;59;1140683;-80
2020/12/03 01:07:28;;;;;;;67.27;31.40;;;;;;;-2.45;78.04;100874.40;4800247;59;1140475;-80
2020/12/03 01:12:33;;;;;;;40.90;17.80;;;;;;;-2.53;77.71;100870.64;4799043;58;1140993;-80
2020/12/03 01:17:40;;;;;;;77.80;34.77;;;;;;;-2.62;77.98;100857.87;4854481;59;1150076;-79
2020/12/03 01:22:46;;;;;;;73.37;34.07;;;;;;;-2.66;77.95;100847.16;4799561;58;1140848;-79
2020/12/03 01:27:53;;;;;;;51.87;21.37;;;;;;;-2.63;78.09;100828.55;4819367;58;1140403;-79
2020/12/03 01:32:59;;;;;;;71.23;29.93;;;;;;;-2.66;77.87;100826.01;4800203;58;1140895;-80
2020/12/03 01:38:04;;;;;;;53.87;20.93;;;;;;;-2.73;77.76;100817.92;4817949;58;1140385;-80
2020/12/03 01:43:10;;;;;;;60.63;26.53;;;;;;;-2.77;78.08;100799.92;4819733;58;1140492;-80
2020/12/03 01:48:47;;;;;;;88.60;36.00;;;;;;;-2.79;78.25;100801.23;4799051;59;1140753;-80
2020/12/03 01:53:57;;;;;;;67.43;32.30;;;;;;;-2.72;78.25;100791.16;4819669;58;1140501;-80
2020/12/03 01:59:05;;;;;;;67.60;28.47;;;;;;;-2.75;77.73;100762.74;4837292;58;1140456;-80
2020/12/03 02:04:11;;;;;;;73.90;32.73;;;;;;;-2.81;77.90;100768.05;4795779;59;1140421;-80
2020/12/03 02:09:16;;;;;;;60.33;27.63;;;;;;;-2.76;78.07;100763.66;4798451;58;1140821;-80
2020/12/03 02:14:22;;;;;;;73.47;32.37;;;;;;;-2.76;77.86;100748.13;4799113;59;1140396;-80
2020/12/03 02:19:32;;;;;;;36.15;15.58;;;;;;;-2.74;77.77;100747.62;4832332;58;1140958;-82
2020/12/03 02:24:42;;;;;;;58.13;28.73;;;;;;;-2.81;77.41;100739.59;4938680;58;1140879;-79
2020/12/03 02:29:48;;;;;;;61.98;29.95;;;;;;;-2.87;77.55;100733.22;4942263;58;1140434;-80
2020/12/03 02:34:54;;;;;;;64.70;29.80;;;;;;;-2.84;77.89;100731.87;4933221;58;1140452;-80
2020/12/03 02:40:01;;;;;;;63.77;29.03;;;;;;;-2.86;77.98;100731.05;4930182;58;1140967;-80
2020/12/03 02:45:07;;;;;;;71.50;31.77;;;;;;;-2.93;78.11;100725.59;4930074;58;1140372;-80
2020/12/03 02:50:13;;;;;;;69.73;30.03;;;;;;;-2.94;78.10;100725.18;4941924;58;1140392;-80
2020/12/03 02:55:18;;;;;;;61.77;28.37;;;;;;;-2.97;78.08;100725.23;4919036;58;1140515;-80
2020/12/03 03:00:24;;;;;;;72.67;31.27;;;;;;;-3.00;78.17;100723.99;4949591;58;1140334;-81
2020/12/03 03:05:29;;;;;;;73.77;32.60;;;;;;;-2.96;78.21;100717.45;4936721;58;1140334;-84
2020/12/03 03:10:35;;;;;;;67.33;30.77;;;;;;;-2.90;78.26;100709.98;4928289;58;1140885;-81
2020/12/03 03:15:40;;;;;;;52.97;22.67;;;;;;;-2.86;78.07;100698.70;4934417;58;1140443;-80
2020/12/03 03:20:46;;;;;;;57.50;25.32;;;;;;;-2.90;78.11;100691.87;4931954;58;1140360;-81
2020/12/03 03:25:51;;;;;;;57.37;28.47;;;;;;;-2.93;77.92;100688.93;4932849;58;1140635;-81
2020/12/03 03:30:57;;;;;;;59.40;27.40;;;;;;;-3.00;78.12;100694.23;4930949;58;1140482;-80
2020/12/03 03:36:02;;;;;;;66.17;29.17;;;;;;;-3.03;78.16;100683.94;4938682;59;1140531;-81
2020/12/03 03:41:08;;;;;;;74.83;32.00;;;;;;;-3.03;78.27;100678.77;4935438;58;1140581;-81
2020/12/03 03:46:14;;;;;;;73.53;32.00;;;;;;;-3.00;78.33;100669.66;4932033;58;1140661;-81
2020/12/03 03:51:20;;;;;;;73.60;32.93;;;;;;;-2.98;78.20;100665.31;5032210;58;21562;-81
2020/12/03 03:56:25;;;;;;;76.60;33.98;;;;;;;-3.05;78.18;100659.39;5010350;58;1136339;-81
2020/12/03 04:01:31;;;;;;;57.93;28.43;;;;;;;-2.98;78.47;100654.52;4953062;58;1140388;-81
2020/12/03 04:06:36;;;;;;;74.23;31.40;;;;;;;-2.98;78.08;100635.11;4930697;58;1140709;-81
2020/12/03 04:11:46;;;;;;;56.97;28.30;;;;;;;-2.95;78.24;100636.35;4930401;58;1140856;-81
2020/12/03 04:16:51;;;;;;;70.03;32.10;;;;;;;-2.92;78.19;100630.27;4863911;58;1140577;-80
2020/12/03 04:21:57;;;;;;;75.70;34.67;;;;;;;-2.95;78.28;100605.74;4894516;58;1140798;-81
2020/12/03 04:27:03;;;;;;;67.53;31.27;;;;;;;-2.95;78.28;100605.74;4869819;58;1140547;-81
2020/12/03 04:32:08;;;;;;;52.83;21.53;;;;;;;-2.96;78.29;100598.86;4874047;58;1140507;-81
2020/12/03 04:37:14;;;;;;;71.33;30.27;;;;;;;-3.04;78.65;100593.83;4868053;58;1140597;-81
2020/12/03 04:42:27;;;;;;;74.17;29.73;;;;;;;-3.07;78.88;100583.58;4984277;58;1140402;-81
2020/12/03 04:47:52;;;;;;;63.65;28.85;;;;;;;-3.03;79.10;100586.92;4970239;58;1140721;-81
2020/12/03 04:53:10;;;;;;;78.43;32.97;;;;;;;-3.03;79.36;100576.58;4738102;60;1140530;-81
2020/12/03 04:58:52;;;;;;;71.70;31.57;;;;;;;-3.00;79.45;100576.08;4642995;61;1140797;-82
2020/12/03 05:04:18;;;;;;;74.90;27.30;;;;;;;-2.95;79.68;100569.52;4634553;61;1140539;-82
2020/12/03 05:09:43;;;;;;;65.57;28.97;;;;;;;-2.93;79.91;100545.77;4637473;61;1140731;-82
2020/12/03 05:15:08;;;;;;;77.30;31.40;;;;;;;-2.88;79.93;100536.98;4568416;63;1140820;-82
2020/12/03 05:20:20;;;;;;;61.00;25.93;;;;;;;-2.85;79.77;100538.66;4554722;63;1140492;-82
2020/12/03 05:25:27;;;;;;;75.70;34.33;;;;;;;-2.83;80.00;100530.42;4563208;63;1141143;-82
2020/12/03 05:30:33;;;;;;;82.53;37.73;;;;;;;-2.76;79.96;100521.65;4646130;60;1140550;-83
2020/12/03 05:35:40;;;;;;;64.97;27.73;;;;;;;-2.73;79.98;100521.55;4744104;60;1140876;-82
2020/12/03 05:40:58;;;;;;;85.60;39.77;;;;;;;-2.69;80.08;100524.48;4743909;60;1140390;-82
2020/12/03 05:46:05;;;;;;;75.57;34.30;;;;;;;-2.66;79.91;100518.39;4724822;60;1140586;-82
2020/12/03 05:51:21;;;;;;;63.03;24.87;;;;;;;-2.63;79.88;100510.11;4714632;60;1140396;-82
2020/12/03 05:56:30;;;;;;;77.73;32.87;;;;;;;-2.60;79.88;100508.75;4725887;60;1140866;-82
2020/12/03 06:01:35;;;;;;;54.37;22.43;;;;;;;-2.57;79.77;100503.48;4712648;60;1140909;-82
2020/12/03 06:07:01;;;;;;;83.37;33.10;;;;;;;-2.60;79.67;100491.08;4717925;60;1142934;-81
2020/12/03 06:12:36;;;;;;;92.37;40.20;;;;;;;-2.59;79.60;100484.98;4827135;59;1140747;-82
2020/12/03 06:18:01;;;;;;;53.50;21.57;;;;;;;-2.55;79.71;100492.64;4825318;59;1140780;-81
2020/12/03 06:23:14;;;;;;;72.87;31.33;;;;;;;-2.51;79.51;100481.77;4843357;59;1140872;-81
2020/12/03 06:28:46;;;;;;;70.80;30.35;;;;;;;-2.46;79.31;100485.11;4822069;59;1140848;-82
2020/12/03 06:34:01;;;;;;;77.55;32.33;;;;;;;-2.43;79.14;100486.75;4825571;58;1141219;-84
2020/12/03 06:39:24;;;;;;;66.43;29.23;;;;;;;-2.43;79.17;100486.30;4744944;60;1140709;-84
2020/12/03 06:44:46;;;;;;;75.03;29.90;;;;;;;-2.47;78.97;100492.91;4955635;57;1140636;-84
2020/12/03 06:50:29;;;;;;;72.32;32.15;;;;;;;-2.50;79.08;100482.19;4957201;57;1141000;-84
2020/12/03 06:56:00;;;;;;;74.97;31.37;;;;;;;-2.50;79.23;100484.77;4767184;59;1140822;-84
2020/12/03 07:01:45;;;;;;;67.77;31.23;;;;;;;-2.45;79.14;100485.96;4829360;59;1140369;-84
2020/12/03 07:07:01;;;;;;;75.78;33.90;;;;;;;-2.42;79.04;100493.63;4880667;58;1140685;-84
2020/12/03 07:12:30;;;;;;;81.83;31.93;;;;;;;-2.39;79.03;100485.34;4861303;58;1140335;-85
2020/12/03 07:18:23;;;;;;;84.13;35.50;;;;;;;-2.40;78.80;100484.94;4849132;59;1140437;-86
2020/12/03 07:24:05;;;;;;;85.97;37.83;;;;;;;-2.40;78.84;100490.56;4806272;59;1140659;-87
2020/12/03 07:29:15;;;;;;;125.27;44.53;;;;;;;-2.36;79.08;100483.12;4716666;61;1140501;-86
2020/12/03 07:34:34;;;;;;;47.05;20.20;;;;;;;-2.28;78.99;100494.98;4737152;60;1143103;-86
2020/12/03 07:39:40;;;;;;;86.13;37.83;;;;;;;-2.27;78.55;100493.24;4743622;59;1140679;-87
2020/12/03 07:44:58;;;;;;;82.03;36.60;;;;;;;-2.29;78.74;100478.22;4759144;60;1140778;-86
2020/12/03 07:50:07;;;;;;;92.03;37.27;;;;;;;-2.29;78.65;100472.56;4734271;60;1140656;-85
2020/12/03 07:55:29;;;;;;;78.97;33.17;;;;;;;-2.26;78.98;100467.75;4742582;61;1140738;-87
2020/12/03 08:00:51;;;;;;;83.80;35.13;;;;;;;-2.22;78.63;100469.38;4739930;61;1140456;-88
2020/12/03 08:06:13;;;;;;;108.63;45.87;;;;;;;-2.21;78.70;100462.86;4761884;60;1140624;-87
2020/12/03 08:11:48;;;;;;;85.00;34.97;;;;;;;-2.20;78.76;100452.05;4834175;58;1142782;-87
2020/12/03 08:16:54;;;;;;;91.23;40.10;;;;;;;-2.21;78.76;100451.65;4883936;58;1140440;-86
2020/12/03 08:22:00;;;;;;;84.37;37.13;;;;;;;-2.18;78.86;100449.84;4805892;59;1140982;-86
2020/12/03 08:27:20;;;;;;;83.33;33.37;;;;;;;-2.13;78.93;100437.58;4748061;61;1140633;-86
2020/12/03 08:32:24;;;;;;;78.93;35.33;;;;;;;-2.10;78.61;100440.55;4874792;59;1140434;-83
2020/12/03 08:37:29;;;;;;;97.70;39.50;;;;;;;-2.09;78.39;100430.59;4858959;58;1140371;-84
2020/12/03 08:42:36;;;;;;;86.57;37.53;;;;;;;-2.08;78.66;100430.14;4802692;59;1140800;-83
2020/12/03 08:47:48;;;;;;;78.60;31.97;;;;;;;-2.03;78.39;100434.77;4794736;60;1140781;-83
2020/12/03 08:52:55;;;;;;;90.90;39.23;;;;;;;-2.07;77.91;100448.23;4852878;59;1140594;-85
2020/12/03 08:58:02;;;;;;;98.30;39.43;;;;;;;-2.03;78.04;100436.06;4865485;59;1140435;-84
2020/12/03 09:03:13;;;;;;;62.50;25.43;;;;;;;-2.00;78.03;100432.09;4748740;60;1141020;-84
2020/12/03 09:08:21;;;;;;;83.10;37.23;;;;;;;-1.98;77.53;100431.13;4857229;58;1140435;-85
2020/12/03 09:13:27;;;;;;;62.23;24.77;;;;;;;-1.94;77.62;100436.64;4758292;60;1140440;-85
2020/12/03 09:18:33;;;;;;;79.40;30.93;;;;;;;-1.93;77.15;100440.94;4820438;59;1140328;-85
2020/12/03 09:23:42;;;;;;;63.40;25.75;;;;;;;-1.92;77.37;100437.90;4787165;60;1140800;-85
2020/12/03 09:28:48;;;;;;;73.93;29.87;;;;;;;-1.96;77.32;100418.98;4853424;59;1140820;-84
2020/12/03 09:33:56;;;;;;;58.02;24.70;;;;;;;-1.99;77.48;100419.09;4916521;58;1140710;-85
2020/12/03 09:39:03;;;;;;;97.37;40.40;;;;;;;-2.04;77.63;100417.07;4915385;58;1140409;-85
2020/12/03 09:44:16;;;;;;;84.00;35.73;;;;;;;-1.97;77.97;100412.55;4892664;59;1140515;-85
2020/12/03 09:49:22;;;;;;;96.73;39.73;;;;;;;-1.93;78.22;100404.66;4849735;59;1140626;-85
2020/12/03 09:54:28;;;;;;;96.57;40.27;;;;;;;-1.90;78.20;100401.98;4858742;59;1140991;-85
2020/12/03 09:59:34;;;;;;;91.40;37.73;;;;;;;-1.92;78.75;100388.21;4853243;59;1140857;-84
2020/12/03 10:05:01;;;;;;;83.83;31.30;;;;;;;-1.95;78.92;100375.78;4851575;60;1148416;-85
2020/12/03 10:10:20;;;;;;;90.00;38.03;;;;;;;-1.96;79.77;100373.64;4921695;58;1140550;-85
2020/12/03 10:16:05;;;;;;;117.07;50.23;;;;;;;-1.90;79.76;100368.73;4946554;58;1140653;-85
2020/12/03 10:21:13;;;;;;;196.68;78.42;;;;;;;-1.84;79.88;100360.34;4948569;58;1142793;-85
2020/12/03 10:26:23;;;;;;;134.07;56.97;;;;;;;-1.79;79.90;100338.16;4861219;58;1142619;-84
2020/12/03 10:31:31;;;;;;;130.97;51.80;;;;;;;-1.80;80.36;100325.64;4846166;59;1142868;-84
2020/12/03 10:36:53;;;;;;;102.87;45.37;;;;;;;-1.83;80.48;100326.17;4823096;59;1142544;-85
2020/12/03 10:42:00;;;;;;;89.90;38.97;;;;;;;-1.86;80.77;100310.73;4836213;59;1142739;-85
2020/12/03 10:47:10;;;;;;;166.43;70.37;;;;;;;-1.84;80.90;100311.09;4955532;58;1140430;-85
2020/12/03 10:52:19;;;;;;;80.40;30.90;;;;;;;-1.80;80.98;100298.87;4829731;59;1142770;-85
2020/12/03 10:57:27;;;;;;;90.93;41.87;;;;;;;-1.78;81.21;100299.67;4956053;58;1140573;-84
2020/12/03 11:02:43;;;;;;;108.17;44.93;;;;;;;-1.79;81.51;100279.83;4948546;58;1140611;-84
2020/12/03 11:07:57;;;;;;;74.23;30.93;;;;;;;-1.78;81.77;100279.78;4958419;58;1142892;-85
2020/12/03 11:13:03;;;;;;;95.40;38.70;;;;;;;-1.78;82.02;100278.48;4952288;58;1140637;-85
2020/12/03 11:18:11;;;;;;;102.10;40.73;;;;;;;-1.79;82.31;100271.61;4973953;58;1140517;-85
2020/12/03 11:23:23;;;;;;;149.50;58.17;;;;;;;-1.77;82.49;100269.82;4952196;58;1142792;-84
2020/12/03 11:28:34;;;;;;;173.07;67.57;;;;;;;-1.76;82.79;100253.81;4775599;60;1142685;-85
2020/12/03 11:33:41;;;;;;;127.73;53.03;;;;;;;-1.72;82.49;100236.43;4840539;59;1142730;-84
2020/12/03 11:38:57;;;;;;;124.93;54.13;;;;;;;-1.71;82.49;100229.91;4854324;59;1142854;-84
2020/12/03 11:49:32;;;;;;;109.87;42.67;;;;;;;-1.79;83.04;100195.59;4812954;59;1142700;-84
2020/12/03 11:54:38;;;;;;;121.97;50.73;;;;;;;-1.79;82.95;100182.63;4803852;59;1142790;-84
2020/12/03 11:59:43;;;;;;;92.20;36.70;;;;;;;-1.86;83.18;100175.96;4805434;60;1142664;-85
2020/12/03 12:05:02;;;;;;;177.43;60.88;;;;;;;-1.89;83.35;100162.65;4817482;59;1140657;-85
2020/12/03 12:10:53;;;;;;;68.67;29.82;;;;;;;-1.90;83.77;100154.92;4809648;59;1142612;-85
2020/12/03 12:15:13;;;;;;;93.27;41.27;;;;;;;-1.96;83.59;100168.91;4786233;59;1140499;-84
2020/12/03 12:20:18;;;;;;;82.30;36.73;;;;;;;-1.96;83.76;100166.77;4799151;58;1140469;-85
2020/12/03 12:25:24;;;;;;;121.20;50.50;;;;;;;-1.94;83.90;100162.39;4814783;58;1141049;-85
2020/12/03 12:30:31;;;;;;;94.00;41.87;;;;;;;-1.92;83.85;100158.86;4782608;59;1142443;-85
2020/12/03 12:35:37;;;;;;;106.92;46.45;;;;;;;-1.88;83.63;100164.80;4788979;60;1140508;-85
2020/12/03 12:40:43;;;;;;;261.57;99.35;;;;;;;-1.87;84.04;100162.61;4791582;59;1142731;-85
2020/12/03 12:45:49;;;;;;;155.67;69.17;;;;;;;-1.86;83.87;100148.75;4805083;59;1142442;-85
2020/12/03 12:50:54;;;;;;;69.87;26.53;;;;;;;-1.83;84.00;100144.73;4787088;59;1142935;-85
2020/12/03 12:56:00;;;;;;;144.20;55.10;;;;;;;-1.85;84.17;100130.56;4805092;59;1140477;-85
2020/12/03 13:01:07;;;;;;;136.27;54.30;;;;;;;-1.86;84.25;100118.50;4836256;59;1142641;-85
2020/12/03 13:06:13;;;;;;;91.90;37.40;;;;;;;-1.85;84.34;100096.86;4787713;60;1142757;-85
2020/12/03 13:11:18;;;;;;;121.63;49.87;;;;;;;-1.82;84.25;100092.85;4811870;59;1140745;-84
2020/12/03 13:16:24;;;;;;;112.77;43.57;;;;;;;-1.81;84.30;100087.22;4802580;59;1142853;-85
2020/12/03 13:21:33;;;;;;;96.97;41.07;;;;;;;-1.78;84.27;100085.83;4833566;59;1142559;-85
2020/12/03 13:26:39;;;;;;;94.70;37.83;;;;;;;-1.75;84.32;100083.13;4812079;59;1140666;-84
2020/12/03 13:31:48;;;;;;;89.03;35.67;;;;;;;-1.75;84.45;100068.88;4807934;59;1140701;-85
2020/12/03 13:36:55;;;;;;;96.80;39.20;;;;;;;-1.73;84.65;100067.08;4775219;59;1146703;-84
2020/12/03 13:42:00;;;;;;;124.82;49.65;;;;;;;-1.69;84.26;100040.61;4785274;59;1140881;-84
2020/12/03 13:47:06;;;;;;;104.27;45.83;;;;;;;-1.71;84.71;100033.33;4783465;60;1142676;-84
2020/12/03 13:52:11;;;;;;;131.17;50.83;;;;;;;-1.70;84.30;100037.62;4799457;60;1142475;-85
2020/12/03 13:57:17;;;;;;;74.27;32.97;;;;;;;-1.74;84.74;100020.47;4772214;59;1142830;-85
2020/12/03 14:02:26;;;;;;;86.90;37.00;;;;;;;-1.74;84.62;100027.80;4801511;60;1140594;-85
2020/12/03 14:07:30;;;;;;;81.47;32.67;;;;;;;-1.74;84.84;100025.66;4789305;59;1140649;-87
2020/12/03 14:12:36;;;;;;;106.13;41.20;;;;;;;-1.75;84.97;100029.14;4779809;59;1140869;-84
2020/12/03 14:17:42;;;;;;;85.07;36.03;;;;;;;-1.74;84.82;100028.25;4783380;59;1142699;-85
2020/12/03 14:22:50;;;;;;;89.93;38.50;;;;;;;-1.71;84.72;100027.70;4775631;59;1140888;-85
2020/12/03 14:27:56;;;;;;;128.30;51.13;;;;;;;-1.69;84.86;100019.87;4776563;60;1140740;-84
2020/12/03 14:33:01;;;;;;;77.77;29.70;;;;;;;-1.65;84.72;100005.88;4815731;59;1142725;-84
2020/12/03 14:38:07;;;;;;;97.47;41.73;;;;;;;-1.64;85.07;100011.00;4811714;59;1140488;-88
2020/12/03 14:43:13;;;;;;;59.23;25.00;;;;;;;-1.60;85.10;100000.08;4800955;59;1140651;-84
2020/12/03 14:48:18;;;;;;;75.53;34.63;;;;;;;-1.58;85.05;100000.42;4805713;59;1140500;-85
2020/12/03 14:53:24;;;;;;;68.73;29.17;;;;;;;-1.54;85.22;99989.50;4804805;59;1140615;-85
2020/12/03 14:58:31;;;;;;;91.90;37.37;;;;;;;-1.55;85.34;99971.80;4839688;59;1138614;-84
2020/12/03 15:03:37;;;;;;;77.33;34.67;;;;;;;-1.50;85.13;99971.61;4818994;58;1138396;-84
2020/12/03 15:08:44;;;;;;;64.63;28.13;;;;;;;-1.51;85.37;99966.02;4808040;59;1138606;-84
2020/12/03 15:13:50;;;;;;;65.97;27.70;;;;;;;-1.51;85.50;99958.25;4825124;59;1138380;-84
2020/12/03 15:18:55;;;;;;;95.85;42.27;;;;;;;-1.50;85.42;99972.91;4803809;59;1138737;-84
2020/12/03 15:24:01;;;;;;;108.78;42.62;;;;;;;-1.48;85.32;99962.87;4806031;59;1138612;-84
2020/12/03 15:29:09;;;;;;;84.73;35.97;;;;;;;-1.46;85.28;99977.93;4803114;59;1140592;-84
2020/12/03 15:34:14;;;;;;;72.95;34.20;;;;;;;-1.39;85.12;99981.16;4824986;59;1138343;-85
2020/12/03 15:39:27;;;;;;;78.97;34.63;;;;;;;-1.37;85.21;99970.24;4745016;60;1138741;-84
2020/12/03 15:44:32;;;;;;;79.80;31.80;;;;;;;-1.39;85.37;99963.45;4826232;60;1138435;-84
2020/12/03 15:49:39;;;;;;;90.97;38.35;;;;;;;-1.39;85.45;99961.70;4818274;60;1138781;-84
2020/12/03 15:54:45;;;;;;;59.67;21.07;;;;;;;-1.36;85.28;99963.31;4832359;59;1138321;-84
2020/12/03 15:59:52;;;;;;;103.97;43.08;;;;;;;-1.36;85.54;99969.34;4846586;60;1138414;-84
2020/12/03 16:04:57;;;;;;;73.00;33.73;;;;;;;-1.34;85.48;99961.50;4741664;61;1146355;-83
2020/12/03 16:10:03;;;;;;;70.50;30.93;;;;;;;-1.30;85.54;99960.49;4762274;61;1138711;-84
2020/12/03 16:15:08;;;;;;;85.93;36.67;;;;;;;-1.27;85.39;99962.98;4867341;58;1138390;-84
2020/12/03 16:20:16;;;;;;;78.40;31.10;;;;;;;-1.28;85.60;99952.20;4741909;60;1138432;-84
2020/12/03 16:25:21;;;;;;;101.87;39.53;;;;;;;-1.27;85.63;99945.66;4853325;58;1138738;-84
2020/12/03 16:30:27;;;;;;;138.57;56.20;;;;;;;-1.30;85.47;99939.74;4764546;60;1140417;-84
2020/12/03 16:35:32;;;;;;;109.83;43.07;;;;;;;-1.33;85.58;99932.07;4809925;59;1140510;-84
2020/12/03 16:40:38;;;;;;;106.93;49.20;;;;;;;-1.34;85.68;99923.89;4781024;60;1140538;-84
2020/12/03 16:45:44;;;;;;;103.87;43.30;;;;;;;-1.33;85.32;99919.95;4777978;59;1140546;-84
2020/12/03 16:50:49;;;;;;;76.87;27.23;;;;;;;-1.34;84.71;99916.11;4787316;59;1140827;-84
2020/12/03 16:55:55;;;;;;;104.83;35.10;;;;;;;-1.42;84.19;99912.53;4778891;59;1138446;-84
2020/12/03 17:01:01;;;;;;;105.03;38.97;;;;;;;-1.44;83.96;99918.23;4796680;60;1141013;-84
2020/12/03 17:06:07;;;;;;;102.05;40.45;;;;;;;-1.44;83.76;99929.90;4785816;59;1141150;-84
2020/12/03 17:11:13;;;;;;;80.60;30.37;;;;;;;-1.44;83.52;99913.04;4823162;59;1140520;-84
2020/12/03 17:16:18;;;;;;;65.40;26.23;;;;;;;-1.46;83.10;99901.87;4783078;59;1138522;-84
2020/12/03 17:21:24;;;;;;;67.45;27.30;;;;;;;-1.49;82.92;99891.16;4821539;59;1138267;-84
2020/12/03 17:26:29;;;;;;;87.63;34.33;;;;;;;-1.50;82.63;99899.84;4821210;60;1138484;-84
2020/12/03 17:31:35;;;;;;;85.63;35.07;;;;;;;-1.44;82.85;99898.77;4816750;59;1138353;-84
2020/12/03 17:36:40;;;;;;;81.43;31.57;;;;;;;-1.39;82.71;99893.42;4788831;60;1138581;-84
2020/12/03 17:41:47;;;;;;;121.93;46.87;;;;;;;-1.37;82.21;99902.80;4782339;59;1138312;-84
2020/12/03 17:46:53;;;;;;;74.00;28.73;;;;;;;-1.35;82.30;99881.55;4776275;60;1140860;-84
2020/12/03 17:51:58;;;;;;;100.18;35.85;;;;;;;-1.33;81.85;99894.01;4801357;60;1138475;-84
2020/12/03 17:57:06;;;;;;;80.32;32.20;;;;;;;-1.32;81.93;99894.41;4775522;60;1140621;-84
2020/12/03 18:02:12;;;;;;;77.70;34.38;;;;;;;-1.31;81.68;99884.88;4834000;60;1136955;-84
2020/12/03 18:07:17;;;;;;;62.53;24.53;;;;;;;-1.31;81.59;99879.69;4784835;60;1138275;-84
2020/12/03 18:12:23;;;;;;;100.03;41.70;;;;;;;-1.29;81.46;99876.59;4753538;60;1138365;-81
2020/12/03 18:17:28;;;;;;;88.50;35.63;;;;;;;-1.27;81.58;99876.92;4774546;60;1140357;-81
2020/12/03 18:22:34;;;;;;;93.70;40.47;;;;;;;-1.24;81.53;99866.43;4741221;61;1138486;-81
2020/12/03 18:27:39;;;;;;;65.67;29.53;;;;;;;-1.23;81.32;99872.02;4754258;60;1138755;-81
2020/12/03 18:32:51;;;;;;;86.57;37.40;;;;;;;-1.24;81.12;99859.09;4755829;60;1138245;-81
2020/12/03 18:37:53;;;;;;;65.00;26.20;;;;;;;-1.20;81.43;99845.92;4861988;58;1138363;-82
2020/12/03 18:42:59;;;;;;;81.85;34.67;;;;;;;-1.21;81.12;99840.34;4880340;59;1138426;-82
2020/12/03 18:48:04;;;;;;;83.67;36.55;;;;;;;-1.22;81.32;99832.16;4724661;60;1138340;-81
2020/12/03 18:53:10;;;;;;;92.97;40.43;;;;;;;-1.21;81.41;99818.28;4725725;60;1138447;-81
2020/12/03 18:58:17;;;;;;;71.72;26.60;;;;;;;-1.21;81.41;99818.28;4724929;60;1138347;-81
2020/12/03 19:03:24;;;;;;;101.47;40.00;;;;;;;-1.20;81.27;99811.34;4722852;60;1138371;-82
2020/12/03 19:08:34;;;;;;;69.33;27.73;;;;;;;-1.18;81.43;99820.77;4761153;60;1140572;-81
2020/12/03 19:13:36;;;;;;;77.47;31.87;;;;;;;-1.17;81.51;99813.83;4728945;60;1138288;-81
2020/12/03 19:18:42;;;;;;;104.20;44.40;;;;;;;-1.14;81.57;99809.36;4742850;60;1138234;-81
2020/12/03 19:23:49;;;;;;;100.67;38.80;;;;;;;-1.12;81.55;99811.44;4721800;60;1140898;-81
2020/12/03 19:28:55;;;;;;;98.33;37.17;;;;;;;-1.09;81.59;99810.48;4724899;60;1140399;-82
2020/12/03 19:34:00;;;;;;;113.55;40.38;;;;;;;-1.07;81.54;99802.18;4722941;60;1138479;-81
2020/12/03 19:39:06;;;;;;;83.80;32.83;;;;;;;-1.07;81.48;99794.39;4825136;60;1138429;-81
2020/12/03 19:44:12;;;;;;;101.20;42.13;;;;;;;-1.07;81.43;99796.98;4817501;60;1138627;-81
2020/12/03 19:49:18;;;;;;;107.52;43.10;;;;;;;-1.08;81.43;99779.28;4758462;60;1140893;-82
2020/12/03 19:54:25;;;;;;;74.33;30.87;;;;;;;-1.12;81.56;99777.71;4776719;60;1140454;-81
2020/12/03 19:59:31;;;;;;;102.70;43.97;;;;;;;-1.15;81.63;99765.31;4762972;60;1138533;-81
2020/12/03 20:04:37;;;;;;;103.47;38.70;;;;;;;-1.15;81.75;99753.19;4776821;60;1140618;-81
2020/12/03 20:09:43;;;;;;;91.73;35.77;;;;;;;-1.12;81.78;99750.92;4767868;60;1140509;-81
2020/12/03 20:14:48;;;;;;;73.47;29.37;;;;;;;-1.11;81.84;99742.23;4698528;60;1138521;-81
2020/12/03 20:19:54;;;;;;;108.87;43.73;;;;;;;-1.11;81.93;99746.97;4904222;59;1138297;-81
2020/12/03 20:24:59;;;;;;;146.35;54.77;;;;;;;-1.11;82.05;99732.70;4913697;58;1140650;-81
2020/12/03 20:30:06;;;;;;;103.77;41.33;;;;;;;-1.07;82.24;99741.20;4894929;58;1140622;-81
2020/12/03 20:35:12;;;;;;;93.33;39.93;;;;;;;-1.07;82.30;99729.04;4897197;59;1140610;-81
2020/12/03 20:40:17;;;;;;;107.93;44.73;;;;;;;-1.02;82.22;99723.66;4898908;58;1138532;-81
2020/12/03 20:45:23;;;;;;;78.17;35.48;;;;;;;-0.98;82.19;99726.97;4887353;58;1140477;-81
2020/12/03 20:50:28;;;;;;;113.77;48.37;;;;;;;-0.96;82.25;99725.16;4898073;58;1138306;-81
2020/12/03 20:55:34;;;;;;;80.80;34.70;;;;;;;-0.94;82.55;99710.38;4899995;58;1140438;-81
2020/12/03 21:00:40;;;;;;;73.70;31.63;;;;;;;-0.91;82.57;99704.56;4892652;58;1138327;-80
2020/12/03 21:05:45;;;;;;;72.03;33.30;;;;;;;-0.87;82.54;99698.34;4898327;58;1138469;-81
2020/12/03 21:10:56;;;;;;;82.27;36.97;;;;;;;-0.85;82.58;99690.03;4896903;59;1138523;-81
2020/12/03 21:16:02;;;;;;;84.33;38.70;;;;;;;-0.82;82.74;99679.52;4800038;60;1138370;-81
2020/12/03 21:21:07;;;;;;;97.47;42.57;;;;;;;-0.76;82.62;99681.83;4799612;59;1138518;-80
2020/12/03 21:26:13;;;;;;;101.97;42.30;;;;;;;-0.75;82.60;99673.13;4803175;59;1138699;-81
2020/12/03 21:31:26;;;;;;;77.03;34.23;;;;;;;-0.72;82.74;99676.05;4799900;60;1140913;-81
2020/12/03 21:36:32;;;;;;;59.20;26.57;;;;;;;-0.69;82.58;99678.52;4801667;59;1138536;-81
2020/12/03 21:41:37;;;;;;;80.73;37.10;;;;;;;-0.68;82.83;99675.45;4830205;59;1138840;-81
2020/12/03 21:46:43;;;;;;;76.23;30.73;;;;;;;-0.66;82.93;99671.89;4847636;59;1138620;-81
2020/12/03 21:51:48;;;;;;;99.27;42.80;;;;;;;-0.64;83.01;99672.66;4849344;59;1139187;-82
2020/12/03 21:56:54;;;;;;;78.63;34.00;;;;;;;-0.63;83.12;99661.83;4870614;59;1138287;-81
2020/12/03 22:01:59;;;;;;;80.93;33.83;;;;;;;-0.60;83.14;99648.67;4851962;59;1144552;-81
2020/12/03 22:07:05;;;;;;;76.07;32.87;;;;;;;-0.63;83.41;99644.49;4844035;59;1138313;-81
2020/12/03 22:12:15;;;;;;;87.17;36.83;;;;;;;-0.60;83.39;99656.02;4846176;60;1138596;-81
2020/12/03 22:17:20;;;;;;;86.53;36.17;;;;;;;-0.59;83.47;99651.66;4870027;60;1138204;-81
2020/12/03 22:22:26;;;;;;;94.33;40.60;;;;;;;-0.56;83.37;99647.17;4889314;59;1138734;-81
2020/12/03 22:27:32;;;;;;;76.73;33.20;;;;;;;-0.55;83.56;99637.17;4850788;59;1138521;-81
2020/12/03 22:32:37;;;;;;;82.43;35.57;;;;;;;-0.53;83.68;99630.16;4911546;59;1136467;-81
2020/12/03 22:37:43;;;;;;;103.90;48.67;;;;;;;-0.51;83.77;99625.73;4871549;59;1138771;-81
2020/12/03 22:42:48;;;;;;;99.93;44.10;;;;;;;-0.49;83.50;99627.81;4939288;58;1140388;-81
2020/12/03 22:47:54;;;;;;;93.17;42.67;;;;;;;-0.50;83.75;99607.10;5016272;58;1189121;-82
2020/12/03 22:52:59;;;;;;;84.40;36.55;;;;;;;-0.46;83.42;99604.76;4953302;58;1138604;-82
2020/12/03 22:58:05;;;;;;;76.17;32.80;;;;;;;-0.49;83.67;99592.75;4870825;59;1138266;-81